sensor_id;sensor_type;location;lat;lon;timestamp;P1;durP1;ratioP1;P2;durP2;ratioP2
24216;SDS011;12356;49.386;8.688;2022-12-29T00:01:17;5.10;;;2.50;;
24216;SDS011;12356;49.386;8.688;2022-12-29T00:03:49;3.30;;;2.17;;
24216;SDS011;12356;49.386;8.688;2022-12-29T00:06:19;4.22;;;2.08;;
24216;SDS011;12356;49.386;8.688;2022-12-29T00:08:50;4.20;;;1.92;;
24216;SDS011;12356;49.386;8.688;2022-12-29T00:11:22;3.70;;;1.90;;
24216;SDS011;12356;49.386;8.688;2022-12-29T00:13:55;3.65;;;2.20;;
24216;SDS011;12356;49.386;8.688;2022-12-29T00:16:44;3.40;;;2.30;;
24216;SDS011;12356;49.386;8.688;2022-12-29T00:19:15;3.30;;;1.95;;
24216;SDS011;12356;49.386;8.688;2022-12-29T00:22:05;4.80;;;1.98;;
24216;SDS011;12356;49.386;8.688;2022-12-29T00:24:54;5.05;;;2.10;;
24216;SDS011;12356;49.386;8.688;2022-12-29T00:27:31;3.85;;;2.45;;
24216;SDS011;12356;49.386;8.688;2022-12-29T00:30:37;4.60;;;2.05;;
24216;SDS011;12356;49.386;8.688;2022-12-29T00:33:30;3.25;;;2.17;;
24216;SDS011;12356;49.386;8.688;2022-12-29T00:36:31;6.50;;;2.40;;
24216;SDS011;12356;49.386;8.688;2022-12-29T00:39:06;3.90;;;2.10;;
24216;SDS011;12356;49.386;8.688;2022-12-29T00:42:05;3.08;;;1.88;;
24216;SDS011;12356;49.386;8.688;2022-12-29T00:45:00;4.75;;;2.20;;
24216;SDS011;12356;49.386;8.688;2022-12-29T00:47:31;5.93;;;2.35;;
24216;SDS011;12356;49.386;8.688;2022-12-29T00:50:02;4.25;;;2.38;;
24216;SDS011;12356;49.386;8.688;2022-12-29T00:52:32;3.45;;;1.88;;
24216;SDS011;12356;49.386;8.688;2022-12-29T00:55:03;4.18;;;2.20;;
24216;SDS011;12356;49.386;8.688;2022-12-29T00:57:34;6.78;;;2.25;;
24216;SDS011;12356;49.386;8.688;2022-12-29T01:00:05;4.45;;;2.50;;
24216;SDS011;12356;49.386;8.688;2022-12-29T01:02:36;4.30;;;2.20;;
24216;SDS011;12356;49.386;8.688;2022-12-29T01:05:06;4.18;;;2.28;;
24216;SDS011;12356;49.386;8.688;2022-12-29T01:07:37;4.72;;;2.17;;
24216;SDS011;12356;49.386;8.688;2022-12-29T01:10:08;4.53;;;2.15;;
24216;SDS011;12356;49.386;8.688;2022-12-29T01:12:41;4.05;;;2.17;;
24216;SDS011;12356;49.386;8.688;2022-12-29T01:15:14;4.47;;;2.10;;
24216;SDS011;12356;49.386;8.688;2022-12-29T01:17:45;4.20;;;2.47;;
24216;SDS011;12356;49.386;8.688;2022-12-29T01:20:17;3.38;;;2.17;;
24216;SDS011;12356;49.386;8.688;2022-12-29T01:22:48;5.15;;;2.30;;
24216;SDS011;12356;49.386;8.688;2022-12-29T01:25:19;3.03;;;1.92;;
24216;SDS011;12356;49.386;8.688;2022-12-29T01:27:50;3.08;;;1.90;;
24216;SDS011;12356;49.386;8.688;2022-12-29T01:30:21;3.72;;;2.17;;
24216;SDS011;12356;49.386;8.688;2022-12-29T01:32:51;2.80;;;1.70;;
24216;SDS011;12356;49.386;8.688;2022-12-29T01:35:22;3.28;;;1.70;;
24216;SDS011;12356;49.386;8.688;2022-12-29T01:37:53;3.63;;;1.73;;
24216;SDS011;12356;49.386;8.688;2022-12-29T01:40:24;5.28;;;1.95;;
24216;SDS011;12356;49.386;8.688;2022-12-29T01:42:56;8.68;;;2.10;;
24216;SDS011;12356;49.386;8.688;2022-12-29T01:45:26;4.50;;;2.05;;
24216;SDS011;12356;49.386;8.688;2022-12-29T01:47:57;5.18;;;1.90;;
24216;SDS011;12356;49.386;8.688;2022-12-29T01:50:32;3.03;;;1.80;;
24216;SDS011;12356;49.386;8.688;2022-12-29T01:53:07;2.92;;;1.90;;
24216;SDS011;12356;49.386;8.688;2022-12-29T01:55:40;4.30;;;1.58;;
24216;SDS011;12356;49.386;8.688;2022-12-29T01:58:15;4.70;;;1.73;;
24216;SDS011;12356;49.386;8.688;2022-12-29T02:00:50;3.60;;;1.65;;
24216;SDS011;12356;49.386;8.688;2022-12-29T02:03:21;4.78;;;1.90;;
24216;SDS011;12356;49.386;8.688;2022-12-29T02:05:57;3.03;;;1.67;;
24216;SDS011;12356;49.386;8.688;2022-12-29T02:08:33;4.47;;;2.00;;
24216;SDS011;12356;49.386;8.688;2022-12-29T02:11:04;4.82;;;1.70;;
24216;SDS011;12356;49.386;8.688;2022-12-29T02:13:35;3.45;;;1.88;;
24216;SDS011;12356;49.386;8.688;2022-12-29T02:35:55;4.82;;;1.38;;
24216;SDS011;12356;49.386;8.688;2022-12-29T02:38:48;5.22;;;1.60;;
24216;SDS011;12356;49.386;8.688;2022-12-29T02:41:32;4.55;;;1.60;;
24216;SDS011;12356;49.386;8.688;2022-12-29T02:46:53;3.05;;;1.50;;
24216;SDS011;12356;49.386;8.688;2022-12-29T02:49:33;3.28;;;1.30;;
24216;SDS011;12356;49.386;8.688;2022-12-29T02:52:10;3.03;;;1.70;;
24216;SDS011;12356;49.386;8.688;2022-12-29T02:54:49;4.03;;;1.65;;
24216;SDS011;12356;49.386;8.688;2022-12-29T03:00:00;2.58;;;1.50;;
24216;SDS011;12356;49.386;8.688;2022-12-29T03:11:08;2.08;;;1.40;;
24216;SDS011;12356;49.386;8.688;2022-12-29T03:14:04;3.13;;;1.50;;
24216;SDS011;12356;49.386;8.688;2022-12-29T03:17:08;2.65;;;1.50;;
24216;SDS011;12356;49.386;8.688;2022-12-29T03:19:50;3.67;;;1.50;;
24216;SDS011;12356;49.386;8.688;2022-12-29T03:22:26;4.35;;;1.70;;
24216;SDS011;12356;49.386;8.688;2022-12-29T03:27:47;2.42;;;1.70;;
24216;SDS011;12356;49.386;8.688;2022-12-29T03:30:22;2.47;;;1.85;;
24216;SDS011;12356;49.386;8.688;2022-12-29T03:32:55;3.72;;;1.80;;
24216;SDS011;12356;49.386;8.688;2022-12-29T03:35:30;2.88;;;1.58;;
24216;SDS011;12356;49.386;8.688;2022-12-29T03:40:47;5.93;;;1.65;;
24216;SDS011;12356;49.386;8.688;2022-12-29T03:43:20;2.83;;;1.65;;
24216;SDS011;12356;49.386;8.688;2022-12-29T03:48:24;4.72;;;1.88;;
24216;SDS011;12356;49.386;8.688;2022-12-29T03:50:54;3.50;;;1.63;;
24216;SDS011;12356;49.386;8.688;2022-12-29T03:53:25;3.33;;;1.70;;
24216;SDS011;12356;49.386;8.688;2022-12-29T03:55:56;3.65;;;1.52;;
24216;SDS011;12356;49.386;8.688;2022-12-29T03:58:26;5.25;;;1.58;;
24216;SDS011;12356;49.386;8.688;2022-12-29T04:00:57;3.75;;;1.65;;
24216;SDS011;12356;49.386;8.688;2022-12-29T04:03:27;2.60;;;1.60;;
24216;SDS011;12356;49.386;8.688;2022-12-29T04:05:58;2.30;;;1.48;;
24216;SDS011;12356;49.386;8.688;2022-12-29T04:08:29;2.63;;;1.77;;
24216;SDS011;12356;49.386;8.688;2022-12-29T04:10:59;2.78;;;1.40;;
24216;SDS011;12356;49.386;8.688;2022-12-29T04:13:30;4.57;;;1.70;;
24216;SDS011;12356;49.386;8.688;2022-12-29T04:16:00;6.10;;;1.67;;
24216;SDS011;12356;49.386;8.688;2022-12-29T04:18:31;4.03;;;1.40;;
24216;SDS011;12356;49.386;8.688;2022-12-29T04:21:02;2.88;;;1.30;;
24216;SDS011;12356;49.386;8.688;2022-12-29T04:23:34;3.03;;;1.52;;
24216;SDS011;12356;49.386;8.688;2022-12-29T04:28:38;2.22;;;1.60;;
24216;SDS011;12356;49.386;8.688;2022-12-29T04:31:08;3.50;;;1.45;;
24216;SDS011;12356;49.386;8.688;2022-12-29T04:33:39;4.80;;;1.40;;
24216;SDS011;12356;49.386;8.688;2022-12-29T04:36:11;3.15;;;1.50;;
24216;SDS011;12356;49.386;8.688;2022-12-29T04:38:43;3.10;;;1.52;;
24216;SDS011;12356;49.386;8.688;2022-12-29T04:41:13;5.38;;;1.60;;
24216;SDS011;12356;49.386;8.688;2022-12-29T04:43:44;1.90;;;1.30;;
24216;SDS011;12356;49.386;8.688;2022-12-29T04:46:15;2.58;;;1.30;;
24216;SDS011;12356;49.386;8.688;2022-12-29T04:48:45;2.28;;;1.20;;
24216;SDS011;12356;49.386;8.688;2022-12-29T04:51:16;3.63;;;1.40;;
24216;SDS011;12356;49.386;8.688;2022-12-29T04:53:47;2.55;;;1.40;;
24216;SDS011;12356;49.386;8.688;2022-12-29T04:56:18;2.08;;;1.30;;
24216;SDS011;12356;49.386;8.688;2022-12-29T04:58:48;2.10;;;1.27;;
24216;SDS011;12356;49.386;8.688;2022-12-29T05:01:19;3.65;;;1.42;;
24216;SDS011;12356;49.386;8.688;2022-12-29T05:03:50;2.25;;;1.40;;
24216;SDS011;12356;49.386;8.688;2022-12-29T05:06:21;2.80;;;1.45;;
24216;SDS011;12356;49.386;8.688;2022-12-29T05:08:52;2.17;;;1.55;;
24216;SDS011;12356;49.386;8.688;2022-12-29T05:11:23;3.55;;;1.50;;
24216;SDS011;12356;49.386;8.688;2022-12-29T05:13:55;2.78;;;1.55;;
24216;SDS011;12356;49.386;8.688;2022-12-29T05:16:25;5.93;;;1.50;;
24216;SDS011;12356;49.386;8.688;2022-12-29T05:18:56;3.45;;;1.60;;
24216;SDS011;12356;49.386;8.688;2022-12-29T05:21:27;3.97;;;1.70;;
24216;SDS011;12356;49.386;8.688;2022-12-29T05:23:57;2.33;;;1.40;;
24216;SDS011;12356;49.386;8.688;2022-12-29T05:26:28;4.20;;;1.40;;
24216;SDS011;12356;49.386;8.688;2022-12-29T05:28:59;2.72;;;1.40;;
24216;SDS011;12356;49.386;8.688;2022-12-29T05:31:29;2.45;;;1.38;;
24216;SDS011;12356;49.386;8.688;2022-12-29T05:34:01;4.07;;;1.50;;
24216;SDS011;12356;49.386;8.688;2022-12-29T05:36:33;2.25;;;1.33;;
24216;SDS011;12356;49.386;8.688;2022-12-29T05:39:04;4.55;;;1.50;;
24216;SDS011;12356;49.386;8.688;2022-12-29T05:41:37;2.03;;;1.50;;
24216;SDS011;12356;49.386;8.688;2022-12-29T05:44:09;4.35;;;1.60;;
24216;SDS011;12356;49.386;8.688;2022-12-29T05:46:40;2.28;;;1.30;;
24216;SDS011;12356;49.386;8.688;2022-12-29T05:49:11;1.83;;;1.20;;
24216;SDS011;12356;49.386;8.688;2022-12-29T05:51:41;3.17;;;1.60;;
24216;SDS011;12356;49.386;8.688;2022-12-29T05:54:12;2.50;;;1.30;;
24216;SDS011;12356;49.386;8.688;2022-12-29T05:56:43;2.70;;;1.58;;
24216;SDS011;12356;49.386;8.688;2022-12-29T05:59:14;3.47;;;1.45;;
24216;SDS011;12356;49.386;8.688;2022-12-29T06:01:45;3.30;;;1.60;;
24216;SDS011;12356;49.386;8.688;2022-12-29T06:04:15;3.47;;;1.50;;
24216;SDS011;12356;49.386;8.688;2022-12-29T06:06:46;3.58;;;1.67;;
24216;SDS011;12356;49.386;8.688;2022-12-29T06:09:17;2.58;;;1.50;;
24216;SDS011;12356;49.386;8.688;2022-12-29T06:11:48;1.98;;;1.33;;
24216;SDS011;12356;49.386;8.688;2022-12-29T06:14:19;3.60;;;1.60;;
24216;SDS011;12356;49.386;8.688;2022-12-29T06:16:50;4.63;;;1.80;;
24216;SDS011;12356;49.386;8.688;2022-12-29T06:19:20;3.88;;;1.83;;
24216;SDS011;12356;49.386;8.688;2022-12-29T06:21:51;3.80;;;1.70;;
24216;SDS011;12356;49.386;8.688;2022-12-29T06:24:23;4.32;;;1.60;;
24216;SDS011;12356;49.386;8.688;2022-12-29T06:26:53;4.05;;;1.50;;
24216;SDS011;12356;49.386;8.688;2022-12-29T06:29:24;2.55;;;1.50;;
24216;SDS011;12356;49.386;8.688;2022-12-29T06:31:54;3.78;;;1.58;;
24216;SDS011;12356;49.386;8.688;2022-12-29T06:34:27;3.63;;;1.70;;
24216;SDS011;12356;49.386;8.688;2022-12-29T06:36:58;3.97;;;1.65;;
24216;SDS011;12356;49.386;8.688;2022-12-29T06:39:31;5.07;;;1.65;;
24216;SDS011;12356;49.386;8.688;2022-12-29T06:42:01;3.25;;;1.73;;
24216;SDS011;12356;49.386;8.688;2022-12-29T06:44:32;4.25;;;1.90;;
24216;SDS011;12356;49.386;8.688;2022-12-29T06:47:04;10.13;;;2.00;;
24216;SDS011;12356;49.386;8.688;2022-12-29T06:49:35;7.25;;;2.08;;
24216;SDS011;12356;49.386;8.688;2022-12-29T06:52:05;5.15;;;2.20;;
24216;SDS011;12356;49.386;8.688;2022-12-29T06:54:36;9.18;;;2.10;;
24216;SDS011;12356;49.386;8.688;2022-12-29T06:57:07;6.43;;;2.13;;
24216;SDS011;12356;49.386;8.688;2022-12-29T06:59:37;3.92;;;1.90;;
24216;SDS011;12356;49.386;8.688;2022-12-29T07:02:10;4.28;;;1.90;;
24216;SDS011;12356;49.386;8.688;2022-12-29T07:04:40;3.40;;;1.98;;
24216;SDS011;12356;49.386;8.688;2022-12-29T07:07:11;6.57;;;2.10;;
24216;SDS011;12356;49.386;8.688;2022-12-29T07:09:42;5.22;;;2.28;;
24216;SDS011;12356;49.386;8.688;2022-12-29T07:12:12;8.38;;;2.60;;
24216;SDS011;12356;49.386;8.688;2022-12-29T07:14:43;9.40;;;3.42;;
24216;SDS011;12356;49.386;8.688;2022-12-29T07:17:14;9.02;;;3.53;;
24216;SDS011;12356;49.386;8.688;2022-12-29T07:19:45;4.90;;;2.55;;
24216;SDS011;12356;49.386;8.688;2022-12-29T07:22:15;8.65;;;2.78;;
24216;SDS011;12356;49.386;8.688;2022-12-29T07:24:46;5.07;;;2.65;;
24216;SDS011;12356;49.386;8.688;2022-12-29T07:27:18;7.67;;;2.47;;
24216;SDS011;12356;49.386;8.688;2022-12-29T07:29:48;7.72;;;2.40;;
24216;SDS011;12356;49.386;8.688;2022-12-29T07:32:19;8.32;;;2.72;;
24216;SDS011;12356;49.386;8.688;2022-12-29T07:34:51;6.55;;;2.55;;
24216;SDS011;12356;49.386;8.688;2022-12-29T07:37:22;6.20;;;3.00;;
24216;SDS011;12356;49.386;8.688;2022-12-29T07:39:53;9.20;;;3.30;;
24216;SDS011;12356;49.386;8.688;2022-12-29T07:42:24;5.53;;;3.22;;
24216;SDS011;12356;49.386;8.688;2022-12-29T07:44:54;7.45;;;3.40;;
24216;SDS011;12356;49.386;8.688;2022-12-29T07:47:25;6.90;;;3.17;;
24216;SDS011;12356;49.386;8.688;2022-12-29T07:49:56;5.00;;;3.05;;
24216;SDS011;12356;49.386;8.688;2022-12-29T07:52:27;7.07;;;3.30;;
24216;SDS011;12356;49.386;8.688;2022-12-29T07:54:57;5.05;;;3.05;;
24216;SDS011;12356;49.386;8.688;2022-12-29T07:57:28;7.03;;;2.83;;
24216;SDS011;12356;49.386;8.688;2022-12-29T07:59:58;3.97;;;2.30;;
24216;SDS011;12356;49.386;8.688;2022-12-29T08:02:29;4.88;;;2.17;;
24216;SDS011;12356;49.386;8.688;2022-12-29T08:05:00;4.00;;;2.10;;
24216;SDS011;12356;49.386;8.688;2022-12-29T08:07:30;4.22;;;2.67;;
24216;SDS011;12356;49.386;8.688;2022-12-29T08:10:01;4.32;;;2.25;;
24216;SDS011;12356;49.386;8.688;2022-12-29T08:12:32;6.18;;;1.98;;
24216;SDS011;12356;49.386;8.688;2022-12-29T08:15:02;4.95;;;2.15;;
24216;SDS011;12356;49.386;8.688;2022-12-29T08:17:34;4.50;;;2.40;;
24216;SDS011;12356;49.386;8.688;2022-12-29T08:20:04;3.97;;;2.10;;
24216;SDS011;12356;49.386;8.688;2022-12-29T08:22:35;6.20;;;2.13;;
24216;SDS011;12356;49.386;8.688;2022-12-29T08:25:06;5.00;;;2.20;;
24216;SDS011;12356;49.386;8.688;2022-12-29T08:27:37;5.18;;;2.20;;
24216;SDS011;12356;49.386;8.688;2022-12-29T08:30:08;7.40;;;2.25;;
24216;SDS011;12356;49.386;8.688;2022-12-29T08:32:39;3.80;;;2.10;;
24216;SDS011;12356;49.386;8.688;2022-12-29T08:35:10;5.43;;;2.42;;
24216;SDS011;12356;49.386;8.688;2022-12-29T08:37:42;6.10;;;2.63;;
24216;SDS011;12356;49.386;8.688;2022-12-29T08:40:13;4.78;;;2.25;;
24216;SDS011;12356;49.386;8.688;2022-12-29T08:42:45;5.85;;;2.30;;
24216;SDS011;12356;49.386;8.688;2022-12-29T08:45:16;3.50;;;2.03;;
24216;SDS011;12356;49.386;8.688;2022-12-29T08:47:46;5.88;;;2.15;;
24216;SDS011;12356;49.386;8.688;2022-12-29T08:50:17;4.13;;;1.95;;
24216;SDS011;12356;49.386;8.688;2022-12-29T08:52:49;5.32;;;2.05;;
24216;SDS011;12356;49.386;8.688;2022-12-29T08:55:20;3.88;;;1.98;;
24216;SDS011;12356;49.386;8.688;2022-12-29T08:57:51;4.85;;;2.30;;
24216;SDS011;12356;49.386;8.688;2022-12-29T09:00:22;6.72;;;2.10;;
24216;SDS011;12356;49.386;8.688;2022-12-29T09:02:52;6.22;;;2.25;;
24216;SDS011;12356;49.386;8.688;2022-12-29T09:05:23;6.40;;;2.55;;
24216;SDS011;12356;49.386;8.688;2022-12-29T09:07:54;3.28;;;1.90;;
24216;SDS011;12356;49.386;8.688;2022-12-29T09:10:25;5.90;;;1.92;;
24216;SDS011;12356;49.386;8.688;2022-12-29T09:12:55;3.75;;;2.20;;
24216;SDS011;12356;49.386;8.688;2022-12-29T09:15:26;5.13;;;2.58;;
24216;SDS011;12356;49.386;8.688;2022-12-29T09:17:56;3.08;;;1.95;;
24216;SDS011;12356;49.386;8.688;2022-12-29T09:20:27;3.85;;;2.15;;
24216;SDS011;12356;49.386;8.688;2022-12-29T09:22:58;4.25;;;2.20;;
24216;SDS011;12356;49.386;8.688;2022-12-29T09:25:29;2.78;;;1.95;;
24216;SDS011;12356;49.386;8.688;2022-12-29T09:28:00;5.60;;;2.28;;
24216;SDS011;12356;49.386;8.688;2022-12-29T09:30:35;6.88;;;2.15;;
24216;SDS011;12356;49.386;8.688;2022-12-29T09:33:06;5.15;;;2.22;;
24216;SDS011;12356;49.386;8.688;2022-12-29T09:35:37;4.40;;;2.15;;
24216;SDS011;12356;49.386;8.688;2022-12-29T09:38:11;3.83;;;2.30;;
24216;SDS011;12356;49.386;8.688;2022-12-29T09:40:43;5.05;;;2.25;;
24216;SDS011;12356;49.386;8.688;2022-12-29T09:43:23;6.10;;;2.60;;
24216;SDS011;12356;49.386;8.688;2022-12-29T09:52:05;7.03;;;2.30;;
24216;SDS011;12356;49.386;8.688;2022-12-29T09:54:46;5.70;;;2.53;;
24216;SDS011;12356;49.386;8.688;2022-12-29T09:57:26;4.80;;;2.10;;
24216;SDS011;12356;49.386;8.688;2022-12-29T10:00:19;5.28;;;2.42;;
24216;SDS011;12356;49.386;8.688;2022-12-29T10:02:59;7.40;;;2.42;;
24216;SDS011;12356;49.386;8.688;2022-12-29T10:05:49;4.00;;;2.20;;
24216;SDS011;12356;49.386;8.688;2022-12-29T10:14:38;5.22;;;2.30;;
24216;SDS011;12356;49.386;8.688;2022-12-29T10:17:41;5.40;;;2.40;;
24216;SDS011;12356;49.386;8.688;2022-12-29T10:23:49;5.47;;;2.60;;
24216;SDS011;12356;49.386;8.688;2022-12-29T10:26:21;5.20;;;2.40;;
24216;SDS011;12356;49.386;8.688;2022-12-29T10:29:03;5.18;;;2.55;;
24216;SDS011;12356;49.386;8.688;2022-12-29T10:31:38;7.50;;;2.00;;
24216;SDS011;12356;49.386;8.688;2022-12-29T10:36:58;2.90;;;2.00;;
24216;SDS011;12356;49.386;8.688;2022-12-29T10:39:37;5.95;;;2.15;;
24216;SDS011;12356;49.386;8.688;2022-12-29T10:42:27;4.80;;;2.25;;
24216;SDS011;12356;49.386;8.688;2022-12-29T10:44:58;5.60;;;2.30;;
24216;SDS011;12356;49.386;8.688;2022-12-29T10:47:30;4.97;;;2.08;;
24216;SDS011;12356;49.386;8.688;2022-12-29T10:50:05;4.45;;;1.90;;
24216;SDS011;12356;49.386;8.688;2022-12-29T10:52:35;5.50;;;2.20;;
24216;SDS011;12356;49.386;8.688;2022-12-29T10:55:13;4.18;;;2.00;;
24216;SDS011;12356;49.386;8.688;2022-12-29T10:57:49;6.40;;;1.95;;
24216;SDS011;12356;49.386;8.688;2022-12-29T11:00:20;4.93;;;1.90;;
24216;SDS011;12356;49.386;8.688;2022-12-29T11:05:57;2.58;;;1.50;;
24216;SDS011;12356;49.386;8.688;2022-12-29T11:08:35;3.80;;;1.95;;
24216;SDS011;12356;49.386;8.688;2022-12-29T11:11:09;3.38;;;1.55;;
24216;SDS011;12356;49.386;8.688;2022-12-29T11:13:50;1.88;;;1.35;;
24216;SDS011;12356;49.386;8.688;2022-12-29T11:16:30;2.78;;;1.50;;
24216;SDS011;12356;49.386;8.688;2022-12-29T11:19:02;4.90;;;1.63;;
24216;SDS011;12356;49.386;8.688;2022-12-29T11:21:35;2.40;;;1.60;;
24216;SDS011;12356;49.386;8.688;2022-12-29T11:24:31;2.25;;;1.17;;
24216;SDS011;12356;49.386;8.688;2022-12-29T11:27:17;2.08;;;1.38;;
24216;SDS011;12356;49.386;8.688;2022-12-29T11:29:53;3.58;;;1.67;;
24216;SDS011;12356;49.386;8.688;2022-12-29T11:34:57;3.15;;;1.55;;
24216;SDS011;12356;49.386;8.688;2022-12-29T11:37:32;5.40;;;1.73;;
24216;SDS011;12356;49.386;8.688;2022-12-29T11:40:18;3.78;;;1.90;;
24216;SDS011;12356;49.386;8.688;2022-12-29T11:42:51;4.25;;;1.45;;
24216;SDS011;12356;49.386;8.688;2022-12-29T11:45:27;3.85;;;1.40;;
24216;SDS011;12356;49.386;8.688;2022-12-29T11:48:16;6.22;;;1.80;;
24216;SDS011;12356;49.386;8.688;2022-12-29T11:50:50;5.20;;;1.75;;
24216;SDS011;12356;49.386;8.688;2022-12-29T11:53:24;4.32;;;1.85;;
24216;SDS011;12356;49.386;8.688;2022-12-29T11:56:09;4.97;;;1.90;;
24216;SDS011;12356;49.386;8.688;2022-12-29T11:58:43;2.92;;;1.60;;
24216;SDS011;12356;49.386;8.688;2022-12-29T12:04:07;2.88;;;1.27;;
24216;SDS011;12356;49.386;8.688;2022-12-29T12:06:56;2.25;;;1.20;;
24216;SDS011;12356;49.386;8.688;2022-12-29T12:09:38;2.00;;;1.23;;
24216;SDS011;12356;49.386;8.688;2022-12-29T12:12:44;1.65;;;0.80;;
24216;SDS011;12356;49.386;8.688;2022-12-29T12:15:26;3.25;;;0.95;;
24216;SDS011;12356;49.386;8.688;2022-12-29T12:21:05;1.92;;;1.00;;
24216;SDS011;12356;49.386;8.688;2022-12-29T12:27:01;3.03;;;1.00;;
24216;SDS011;12356;49.386;8.688;2022-12-29T12:29:43;1.38;;;0.90;;
24216;SDS011;12356;49.386;8.688;2022-12-29T12:32:36;3.42;;;0.90;;
24216;SDS011;12356;49.386;8.688;2022-12-29T12:35:14;1.80;;;1.20;;
24216;SDS011;12356;49.386;8.688;2022-12-29T12:41:30;3.38;;;1.10;;
24216;SDS011;12356;49.386;8.688;2022-12-29T12:47:07;2.17;;;1.17;;
24216;SDS011;12356;49.386;8.688;2022-12-29T12:56:03;3.03;;;1.58;;
24216;SDS011;12356;49.386;8.688;2022-12-29T12:59:11;3.75;;;1.38;;
24216;SDS011;12356;49.386;8.688;2022-12-29T13:10:54;2.60;;;1.50;;
24216;SDS011;12356;49.386;8.688;2022-12-29T13:27:53;3.93;;;1.70;;
24216;SDS011;12356;49.386;8.688;2022-12-29T13:33:50;4.75;;;1.98;;
24216;SDS011;12356;49.386;8.688;2022-12-29T13:36:43;4.38;;;1.90;;
24216;SDS011;12356;49.386;8.688;2022-12-29T13:41:56;3.00;;;1.90;;
24216;SDS011;12356;49.386;8.688;2022-12-29T13:47:16;6.97;;;2.22;;
24216;SDS011;12356;49.386;8.688;2022-12-29T13:49:55;8.25;;;4.65;;
24216;SDS011;12356;49.386;8.688;2022-12-29T13:55:35;7.55;;;4.25;;
24216;SDS011;12356;49.386;8.688;2022-12-29T14:00:49;5.65;;;2.40;;
24216;SDS011;12356;49.386;8.688;2022-12-29T14:06:14;5.90;;;2.60;;
24216;SDS011;12356;49.386;8.688;2022-12-29T14:11:32;5.93;;;2.90;;
24216;SDS011;12356;49.386;8.688;2022-12-29T14:14:21;7.05;;;3.40;;
24216;SDS011;12356;49.386;8.688;2022-12-29T14:17:11;6.70;;;2.63;;
24216;SDS011;12356;49.386;8.688;2022-12-29T14:19:43;5.60;;;3.25;;
24216;SDS011;12356;49.386;8.688;2022-12-29T14:22:16;8.73;;;3.85;;
24216;SDS011;12356;49.386;8.688;2022-12-29T14:24:53;9.27;;;6.00;;
24216;SDS011;12356;49.386;8.688;2022-12-29T14:30:01;8.20;;;3.40;;
24216;SDS011;12356;49.386;8.688;2022-12-29T14:38:19;4.40;;;2.05;;
24216;SDS011;12356;49.386;8.688;2022-12-29T14:41:15;2.70;;;1.50;;
24216;SDS011;12356;49.386;8.688;2022-12-29T14:44:11;4.13;;;1.67;;
24216;SDS011;12356;49.386;8.688;2022-12-29T14:49:28;3.00;;;1.35;;
24216;SDS011;12356;49.386;8.688;2022-12-29T14:52:06;3.58;;;1.15;;
24216;SDS011;12356;49.386;8.688;2022-12-29T14:54:57;3.42;;;1.30;;
24216;SDS011;12356;49.386;8.688;2022-12-29T14:57:49;4.05;;;1.42;;
24216;SDS011;12356;49.386;8.688;2022-12-29T15:00:23;3.55;;;1.60;;
24216;SDS011;12356;49.386;8.688;2022-12-29T15:05:53;5.78;;;1.98;;
24216;SDS011;12356;49.386;8.688;2022-12-29T15:08:27;5.88;;;2.53;;
24216;SDS011;12356;49.386;8.688;2022-12-29T15:11:31;4.13;;;2.47;;
24216;SDS011;12356;49.386;8.688;2022-12-29T15:14:00;4.40;;;1.48;;
24216;SDS011;12356;49.386;8.688;2022-12-29T15:16:31;3.30;;;1.55;;
24216;SDS011;12356;49.386;8.688;2022-12-29T15:19:20;2.47;;;1.38;;
24216;SDS011;12356;49.386;8.688;2022-12-29T15:21:52;3.38;;;1.50;;
24216;SDS011;12356;49.386;8.688;2022-12-29T15:24:24;2.75;;;1.20;;
24216;SDS011;12356;49.386;8.688;2022-12-29T15:26:55;1.63;;;1.10;;
24216;SDS011;12356;49.386;8.688;2022-12-29T15:29:41;5.45;;;1.30;;
24216;SDS011;12356;49.386;8.688;2022-12-29T15:34:45;3.17;;;1.50;;
24216;SDS011;12356;49.386;8.688;2022-12-29T15:37:19;3.05;;;1.60;;
24216;SDS011;12356;49.386;8.688;2022-12-29T15:39:56;6.32;;;1.90;;
24216;SDS011;12356;49.386;8.688;2022-12-29T15:45:16;3.97;;;1.60;;
24216;SDS011;12356;49.386;8.688;2022-12-29T15:47:47;3.95;;;1.52;;
24216;SDS011;12356;49.386;8.688;2022-12-29T15:50:30;2.05;;;1.30;;
24216;SDS011;12356;49.386;8.688;2022-12-29T15:53:02;3.45;;;1.50;;
24216;SDS011;12356;49.386;8.688;2022-12-29T15:55:41;3.22;;;1.60;;
24216;SDS011;12356;49.386;8.688;2022-12-29T15:58:26;2.92;;;1.30;;
24216;SDS011;12356;49.386;8.688;2022-12-29T16:00:59;1.80;;;1.25;;
24216;SDS011;12356;49.386;8.688;2022-12-29T16:03:32;3.45;;;1.20;;
24216;SDS011;12356;49.386;8.688;2022-12-29T16:06:08;2.40;;;1.30;;
24216;SDS011;12356;49.386;8.688;2022-12-29T16:08:58;6.03;;;2.03;;
24216;SDS011;12356;49.386;8.688;2022-12-29T16:11:34;4.47;;;1.60;;
24216;SDS011;12356;49.386;8.688;2022-12-29T16:14:09;4.60;;;2.30;;
24216;SDS011;12356;49.386;8.688;2022-12-29T16:16:51;6.15;;;2.50;;
24216;SDS011;12356;49.386;8.688;2022-12-29T16:19:24;6.57;;;3.05;;
24216;SDS011;12356;49.386;8.688;2022-12-29T16:24:42;4.47;;;1.60;;
24216;SDS011;12356;49.386;8.688;2022-12-29T16:27:22;2.53;;;1.30;;
24216;SDS011;12356;49.386;8.688;2022-12-29T16:30:03;3.03;;;1.80;;
24216;SDS011;12356;49.386;8.688;2022-12-29T16:32:44;3.30;;;1.65;;
24216;SDS011;12356;49.386;8.688;2022-12-29T16:35:45;4.25;;;1.85;;
24216;SDS011;12356;49.386;8.688;2022-12-29T16:38:17;5.22;;;3.33;;
24216;SDS011;12356;49.386;8.688;2022-12-29T16:40:56;4.95;;;3.10;;
24216;SDS011;12356;49.386;8.688;2022-12-29T16:43:30;5.35;;;3.00;;
24216;SDS011;12356;49.386;8.688;2022-12-29T16:46:16;5.05;;;2.60;;
24216;SDS011;12356;49.386;8.688;2022-12-29T16:48:57;3.63;;;2.50;;
24216;SDS011;12356;49.386;8.688;2022-12-29T16:51:29;6.03;;;3.08;;
24216;SDS011;12356;49.386;8.688;2022-12-29T16:54:02;7.20;;;3.00;;
24216;SDS011;12356;49.386;8.688;2022-12-29T16:56:34;5.93;;;3.20;;
24216;SDS011;12356;49.386;8.688;2022-12-29T16:59:26;5.53;;;3.35;;
24216;SDS011;12356;49.386;8.688;2022-12-29T17:02:25;6.95;;;3.50;;
24216;SDS011;12356;49.386;8.688;2022-12-29T17:04:58;7.05;;;4.28;;
24216;SDS011;12356;49.386;8.688;2022-12-29T17:07:29;8.57;;;5.15;;
24216;SDS011;12356;49.386;8.688;2022-12-29T17:10:00;9.70;;;5.10;;
24216;SDS011;12356;49.386;8.688;2022-12-29T17:12:31;9.45;;;5.03;;
24216;SDS011;12356;49.386;8.688;2022-12-29T17:15:05;8.93;;;4.82;;
24216;SDS011;12356;49.386;8.688;2022-12-29T17:30:00;6.85;;;4.15;;
24216;SDS011;12356;49.386;8.688;2022-12-29T17:32:34;9.15;;;3.83;;
24216;SDS011;12356;49.386;8.688;2022-12-29T17:35:05;6.38;;;3.50;;
24216;SDS011;12356;49.386;8.688;2022-12-29T17:37:36;7.78;;;4.13;;
24216;SDS011;12356;49.386;8.688;2022-12-29T17:40:09;10.25;;;4.13;;
24216;SDS011;12356;49.386;8.688;2022-12-29T17:42:47;8.10;;;3.80;;
24216;SDS011;12356;49.386;8.688;2022-12-29T17:45:22;7.90;;;4.00;;
24216;SDS011;12356;49.386;8.688;2022-12-29T17:48:00;8.77;;;3.83;;
24216;SDS011;12356;49.386;8.688;2022-12-29T17:50:31;6.22;;;3.63;;
24216;SDS011;12356;49.386;8.688;2022-12-29T17:53:03;7.60;;;3.92;;
24216;SDS011;12356;49.386;8.688;2022-12-29T17:55:35;7.90;;;3.75;;
24216;SDS011;12356;49.386;8.688;2022-12-29T17:58:25;5.88;;;4.00;;
24216;SDS011;12356;49.386;8.688;2022-12-29T18:00:58;8.23;;;4.30;;
24216;SDS011;12356;49.386;8.688;2022-12-29T18:03:37;8.60;;;4.50;;
24216;SDS011;12356;49.386;8.688;2022-12-29T18:06:09;9.50;;;4.75;;
24216;SDS011;12356;49.386;8.688;2022-12-29T18:08:41;9.02;;;4.07;;
24216;SDS011;12356;49.386;8.688;2022-12-29T18:11:21;7.05;;;3.90;;
24216;SDS011;12356;49.386;8.688;2022-12-29T18:13:56;5.75;;;3.80;;
24216;SDS011;12356;49.386;8.688;2022-12-29T18:16:27;8.38;;;3.75;;
24216;SDS011;12356;49.386;8.688;2022-12-29T18:18:57;8.02;;;4.03;;
24216;SDS011;12356;49.386;8.688;2022-12-29T18:21:29;6.95;;;3.03;;
24216;SDS011;12356;49.386;8.688;2022-12-29T18:24:00;7.70;;;2.85;;